createdAt,value
2023-09-19T00:02:21.218Z,59.80
2023-09-19T00:04:54.951Z,59.60
2023-09-19T00:07:29.462Z,59.60
2023-09-19T00:10:03.684Z,59.50
2023-09-19T00:12:38.229Z,59.30
2023-09-19T00:15:12.811Z,59.20
2023-09-19T00:17:46.005Z,59.10
2023-09-19T00:20:19.082Z,59.00
2023-09-19T00:22:53.180Z,58.90
2023-09-19T00:25:28.069Z,58.90
2023-09-19T00:28:02.568Z,58.70
2023-09-19T00:30:35.904Z,58.70
2023-09-19T00:33:09.121Z,58.60
2023-09-19T00:35:48.663Z,58.60
2023-09-19T00:38:23.600Z,58.50
2023-09-19T00:41:00.024Z,58.50
2023-09-19T00:43:37.082Z,58.40
2023-09-19T00:46:10.672Z,58.40
2023-09-19T00:48:45.180Z,58.40
2023-09-19T00:51:20.655Z,58.30
2023-09-19T00:53:54.313Z,58.20
2023-09-19T00:56:27.903Z,58.20
2023-09-19T00:59:02.364Z,58.20
2023-09-19T01:01:35.672Z,58.10
2023-09-19T01:04:10.774Z,58.10
2023-09-19T01:06:44.004Z,58.00
2023-09-19T01:09:20.033Z,58.00
2023-09-19T01:11:55.278Z,58.00
2023-09-19T01:14:33.131Z,58.30
2023-09-19T01:17:10.818Z,59.20
2023-09-19T01:19:56.769Z,59.70
2023-09-19T01:22:34.944Z,60.30
2023-09-19T01:25:17.985Z,60.40
2023-09-19T01:28:08.957Z,60.30
2023-09-19T01:30:45.714Z,60.40
2023-09-19T01:33:19.230Z,60.20
2023-09-19T01:35:54.027Z,60.10
2023-09-19T01:38:28.905Z,60.10
2023-09-19T01:41:06.114Z,60.10
2023-09-19T01:43:43.993Z,60.10
2023-09-19T01:46:22.018Z,60.70
2023-09-19T01:49:00.026Z,60.00
2023-09-19T01:51:35.507Z,60.00
2023-09-19T01:54:11.956Z,60.20
2023-09-19T01:56:49.104Z,60.10
2023-09-19T01:59:28.283Z,60.10
2023-09-19T02:02:03.402Z,60.10
2023-09-19T02:04:36.978Z,60.10
2023-09-19T02:07:10.154Z,60.20
2023-09-19T02:09:43.772Z,60.20
2023-09-19T02:12:17.559Z,60.20
2023-09-19T02:14:50.701Z,60.30
2023-09-19T02:17:27.180Z,60.30
2023-09-19T02:20:01.804Z,60.40
2023-09-19T02:22:34.951Z,60.40
2023-09-19T02:25:08.780Z,60.50
2023-09-19T02:27:43.065Z,60.60
2023-09-19T02:30:17.262Z,60.60
2023-09-19T02:32:51.944Z,60.70
2023-09-19T02:35:26.479Z,60.70
2023-09-19T02:37:59.702Z,60.70
2023-09-19T02:40:32.860Z,60.70
2023-09-19T02:43:08.065Z,60.70
2023-09-19T02:45:41.363Z,60.80
2023-09-19T02:48:16.630Z,60.70
2023-09-19T02:50:51.918Z,60.80
2023-09-19T02:53:25.279Z,60.80
2023-09-19T02:55:58.621Z,60.80
2023-09-19T02:58:36.479Z,60.80
2023-09-19T03:01:10.624Z,60.90
2023-09-19T03:03:46.248Z,60.80
2023-09-19T03:06:21.179Z,60.90
2023-09-19T03:08:54.496Z,60.90
2023-09-19T03:11:29.509Z,60.90
2023-09-19T03:14:05.260Z,61.10
2023-09-19T03:16:38.843Z,61.10
2023-09-19T03:19:16.282Z,61.10
2023-09-19T03:21:51.704Z,61.10
2023-09-19T03:24:25.237Z,61.10
2023-09-19T03:26:58.422Z,61.10
2023-09-19T03:29:33.779Z,61.10
2023-09-19T03:32:08.459Z,61.10
2023-09-19T03:34:44.782Z,61.10
2023-09-19T03:37:19.383Z,61.10
2023-09-19T03:39:52.599Z,61.20
2023-09-19T03:42:27.583Z,61.20
2023-09-19T03:45:02.093Z,61.20
2023-09-19T03:47:35.336Z,61.30
2023-09-19T03:50:13.037Z,61.30
2023-09-19T03:52:46.482Z,61.30
2023-09-19T03:55:19.722Z,61.30
2023-09-19T03:57:53.967Z,61.30
2023-09-19T04:00:28.357Z,61.30
2023-09-19T04:03:03.576Z,61.40
2023-09-19T04:05:38.464Z,61.30
2023-09-19T04:08:11.590Z,61.40
2023-09-19T04:10:46.722Z,61.40
2023-09-19T04:13:20.064Z,61.40
2023-09-19T04:15:53.272Z,61.40
2023-09-19T04:18:26.392Z,61.40
2023-09-19T04:21:03.740Z,61.40
2023-09-19T04:23:37.042Z,61.50
2023-09-19T04:26:10.408Z,61.50
2023-09-19T04:28:45.330Z,61.50
2023-09-19T04:31:19.746Z,61.50
2023-09-19T04:33:52.919Z,61.50
2023-09-19T04:36:34.445Z,61.50
2023-09-19T04:39:09.423Z,61.50
2023-09-19T04:41:42.726Z,61.50
2023-09-19T04:44:17.013Z,61.60
2023-09-19T04:46:50.219Z,61.60
2023-09-19T04:49:23.447Z,61.60
2023-09-19T04:51:58.029Z,61.80
2023-09-19T04:54:31.137Z,61.80
2023-09-19T04:57:04.389Z,62.10
2023-09-19T04:59:37.718Z,62.40
2023-09-19T05:02:11.161Z,62.50
2023-09-19T05:04:44.639Z,62.50
2023-09-19T05:07:19.317Z,62.50
2023-09-19T05:09:52.465Z,62.60
2023-09-19T05:12:25.763Z,62.70
2023-09-19T05:14:58.854Z,62.80
2023-09-19T05:17:32.289Z,62.80
2023-09-19T05:20:16.157Z,62.80
2023-09-19T05:22:51.637Z,62.50
2023-09-19T05:25:26.093Z,62.50
2023-09-19T05:27:59.993Z,62.40
2023-09-19T05:30:33.308Z,62.20
2023-09-19T05:33:06.801Z,61.80
2023-09-19T05:35:40.890Z,61.60
2023-09-19T05:38:19.935Z,61.40
2023-09-19T05:40:53.076Z,61.20
2023-09-19T05:43:26.412Z,61.20
2023-09-19T05:46:01.804Z,61.20
2023-09-19T05:48:34.966Z,61.20
2023-09-19T05:51:08.054Z,61.10
2023-09-19T05:53:44.633Z,61.00
2023-09-19T05:56:20.136Z,61.00
2023-09-19T05:58:54.483Z,60.90
2023-09-19T06:01:28.299Z,61.30
2023-09-19T06:04:01.973Z,60.70
2023-09-19T06:06:37.926Z,60.50
2023-09-19T06:09:12.404Z,60.40
2023-09-19T06:11:45.565Z,60.20
2023-09-19T06:14:19.288Z,60.10
2023-09-19T06:16:55.424Z,60.00
2023-09-19T06:19:28.812Z,60.00
2023-09-19T06:22:02.062Z,59.80
2023-09-19T06:24:36.737Z,59.60
2023-09-19T06:27:10.079Z,59.50
2023-09-19T06:29:43.203Z,59.30
2023-09-19T06:32:16.352Z,59.20
2023-09-19T06:34:56.074Z,59.30
2023-09-19T06:37:31.807Z,59.10
2023-09-19T06:40:07.053Z,58.90
2023-09-19T06:42:40.109Z,58.80
2023-09-19T06:45:14.533Z,58.60
2023-09-19T06:47:50.998Z,58.50
2023-09-19T06:50:24.589Z,58.50
2023-09-19T06:53:00.811Z,58.60
2023-09-19T06:55:35.444Z,58.50
2023-09-19T06:58:09.018Z,58.40
2023-09-19T07:00:42.219Z,58.20
2023-09-19T07:03:17.423Z,58.00
2023-09-19T07:05:50.737Z,58.00
2023-09-19T07:08:23.909Z,57.90
2023-09-19T07:10:58.614Z,57.70
2023-09-19T07:13:31.867Z,57.70
2023-09-19T07:16:05.238Z,57.60
2023-09-19T07:18:38.934Z,57.50
2023-09-19T07:21:16.525Z,58.00
2023-09-19T07:23:53.038Z,57.40
2023-09-19T07:26:28.180Z,57.50
2023-09-19T07:29:03.423Z,57.60
2023-09-19T07:31:39.463Z,57.60
2023-09-19T07:34:12.666Z,57.60
2023-09-19T07:36:46.005Z,57.60
2023-09-19T07:39:23.429Z,57.70
2023-09-19T07:41:58.308Z,57.70
2023-09-19T07:44:31.390Z,57.90
2023-09-19T07:47:04.718Z,57.90
2023-09-19T07:49:38.136Z,58.00
2023-09-19T07:52:11.374Z,58.00
2023-09-19T07:54:45.179Z,57.90
2023-09-19T07:57:19.619Z,58.00
2023-09-19T07:59:52.728Z,58.00
2023-09-19T08:02:25.929Z,58.00
2023-09-19T08:05:01.727Z,58.10
2023-09-19T08:07:35.094Z,58.20
2023-09-19T08:10:14.315Z,58.20
2023-09-19T08:12:57.295Z,58.30
2023-09-19T08:15:30.539Z,58.40
2023-09-19T08:18:04.334Z,58.40
2023-09-19T08:20:39.054Z,58.50
2023-09-19T08:23:12.143Z,58.50
2023-09-19T08:25:46.418Z,58.60
2023-09-19T08:28:25.631Z,58.70
2023-09-19T08:31:03.076Z,58.70
2023-09-19T08:33:36.846Z,58.80
2023-09-19T08:36:15.203Z,58.80
2023-09-19T08:38:48.312Z,59.10
2023-09-19T08:41:21.465Z,59.10
2023-09-19T08:43:56.220Z,59.20
2023-09-19T08:46:32.633Z,59.30
2023-09-19T08:49:06.962Z,59.40
2023-09-19T08:51:45.214Z,59.50
2023-09-19T08:54:24.022Z,59.70
2023-09-19T08:56:58.119Z,59.70
2023-09-19T08:59:32.672Z,60.00
2023-09-19T09:02:06.121Z,60.10
2023-09-19T09:04:41.078Z,60.60
2023-09-19T09:07:14.744Z,60.90
2023-09-19T09:09:49.164Z,61.10
2023-09-19T09:12:22.593Z,61.40
2023-09-19T09:14:58.348Z,61.60
2023-09-19T09:17:34.398Z,61.80
2023-09-19T09:20:09.456Z,61.80
2023-09-19T09:22:52.378Z,62.00
2023-09-19T09:25:48.874Z,62.10
2023-09-19T09:28:23.031Z,62.20
2023-09-19T09:30:59.279Z,62.30
2023-09-19T09:33:32.618Z,62.60
2023-09-19T09:36:07.497Z,62.50
2023-09-19T09:38:49.496Z,62.60
2023-09-19T09:41:38.722Z,63.30
2023-09-19T09:44:16.608Z,62.70
2023-09-19T09:47:21.045Z,62.80
2023-09-19T09:49:55.945Z,62.50
2023-09-19T09:52:32.975Z,62.50
2023-09-19T09:55:08.929Z,62.70
2023-09-19T09:57:42.806Z,63.00
2023-09-19T10:00:21.673Z,63.70
2023-09-19T10:02:56.565Z,63.30
2023-09-19T10:05:35.839Z,64.00
2023-09-19T10:08:14.205Z,64.60
2023-09-19T10:10:55.481Z,64.80
2023-09-19T10:13:32.350Z,64.60
2023-09-19T10:16:11.364Z,64.40
2023-09-19T10:18:47.587Z,65.20
2023-09-19T10:21:23.402Z,65.30
2023-09-19T10:23:57.889Z,66.30
2023-09-19T10:26:33.078Z,65.70
2023-09-19T10:29:08.727Z,65.30
2023-09-19T10:31:48.779Z,65.20
2023-09-19T10:34:27.537Z,65.00
2023-09-19T10:37:03.493Z,64.80
2023-09-19T10:39:39.875Z,64.60
2023-09-19T10:42:18.511Z,64.60
2023-09-19T10:44:54.923Z,64.40
2023-09-19T10:47:28.200Z,64.50
2023-09-19T10:50:06.702Z,64.50
2023-09-19T10:52:44.279Z,64.50
2023-09-19T10:55:19.477Z,64.40
2023-09-19T10:57:52.783Z,64.30
2023-09-19T11:00:28.387Z,64.30
2023-09-19T11:03:24.640Z,64.30
2023-09-19T11:06:14.939Z,64.20
2023-09-19T11:08:57.375Z,64.20
2023-09-19T11:11:43.948Z,64.10
2023-09-19T11:14:38.017Z,64.10
2023-09-19T11:17:46.971Z,64.10
2023-09-19T11:20:42.822Z,64.50
2023-09-19T11:23:26.471Z,64.60
2023-09-19T11:26:00.303Z,64.90
2023-09-19T11:28:33.364Z,65.70
2023-09-19T11:31:28.255Z,65.60
2023-09-19T11:34:26.520Z,65.80
2023-09-19T11:37:05.111Z,66.10
2023-09-19T11:39:41.147Z,66.60
2023-09-19T11:42:29.151Z,66.90
2023-09-19T11:45:02.254Z,67.00
2023-09-19T11:47:37.083Z,67.10
2023-09-19T11:50:12.422Z,67.40
2023-09-19T11:52:45.952Z,67.40
2023-09-19T11:55:22.295Z,67.20
2023-09-19T11:57:58.550Z,67.50
2023-09-19T12:00:32.024Z,67.40
2023-09-19T12:03:12.411Z,67.60
2023-09-19T12:05:45.670Z,67.40
2023-09-19T12:08:19.833Z,67.50
2023-09-19T12:10:56.174Z,67.60
2023-09-19T12:13:30.796Z,67.80
2023-09-19T12:16:03.996Z,67.90
2023-09-19T12:18:37.101Z,67.60
2023-09-19T12:21:13.397Z,67.70
2023-09-19T12:23:46.516Z,67.90
2023-09-19T12:26:24.107Z,67.70
2023-09-19T12:28:58.636Z,67.50
2023-09-19T12:31:37.226Z,67.00
2023-09-19T12:34:12.688Z,66.70
2023-09-19T12:36:45.988Z,66.60
2023-09-19T12:39:26.878Z,66.40
2023-09-19T12:42:05.256Z,66.20
2023-09-19T12:44:39.522Z,65.90
2023-09-19T12:47:16.988Z,65.60
2023-09-19T12:50:14.819Z,65.40
2023-09-19T12:52:50.584Z,65.30
2023-09-19T12:55:25.365Z,65.00
2023-09-19T12:58:06.704Z,64.70
2023-09-19T13:00:40.492Z,64.50
2023-09-19T13:03:17.531Z,64.20
2023-09-19T13:05:53.196Z,64.00
2023-09-19T13:08:32.476Z,63.90
2023-09-19T13:11:08.396Z,63.70
2023-09-19T13:13:46.547Z,63.40
2023-09-19T13:16:23.461Z,63.10
2023-09-19T13:18:58.722Z,62.90
2023-09-19T13:21:38.676Z,62.60
2023-09-19T13:24:22.030Z,62.50
2023-09-19T13:26:55.325Z,62.30
2023-09-19T13:29:30.826Z,62.00
2023-09-19T13:32:08.030Z,61.90
2023-09-19T13:34:44.365Z,62.00
2023-09-19T13:37:19.152Z,62.00
2023-09-19T13:39:54.979Z,61.90
2023-09-19T13:42:30.837Z,61.90
2023-09-19T13:45:08.994Z,61.80
2023-09-19T13:47:44.508Z,61.50
2023-09-19T13:50:18.220Z,61.20
2023-09-19T13:52:52.506Z,61.10
2023-09-19T13:55:26.237Z,60.90
2023-09-19T13:57:59.309Z,61.10
2023-09-19T14:00:35.376Z,60.80
2023-09-19T14:03:09.454Z,60.20
2023-09-19T14:05:43.628Z,60.20
2023-09-19T14:08:16.873Z,60.00
2023-09-19T14:10:50.170Z,60.30
2023-09-19T14:13:23.263Z,60.20
2023-09-19T14:15:57.968Z,60.20
2023-09-19T14:18:31.084Z,60.10
2023-09-19T14:21:05.649Z,60.10
2023-09-19T14:23:38.788Z,60.10
2023-09-19T14:26:11.961Z,60.00
2023-09-19T14:28:48.815Z,60.10
2023-09-19T14:31:23.585Z,60.10
2023-09-19T14:33:57.709Z,60.20
2023-09-19T14:36:30.823Z,60.00
2023-09-19T14:39:04.708Z,59.80
2023-09-19T14:41:37.785Z,59.70
2023-09-19T14:44:11.673Z,59.90
2023-09-19T14:46:46.538Z,60.00
2023-09-19T14:49:20.085Z,60.00
2023-09-19T14:51:53.562Z,60.00
2023-09-19T14:54:30.348Z,59.90
2023-09-19T14:57:06.130Z,59.80
2023-09-19T14:59:39.373Z,59.70
2023-09-19T15:02:15.150Z,59.60
2023-09-19T15:04:48.981Z,59.40
2023-09-19T15:07:22.144Z,59.30
2023-09-19T15:09:55.236Z,59.30
2023-09-19T15:12:28.321Z,59.20
2023-09-19T15:15:01.825Z,59.30
2023-09-19T15:17:37.642Z,59.40
2023-09-19T15:20:15.067Z,59.20
2023-09-19T15:22:49.286Z,59.20
2023-09-19T15:25:22.479Z,59.10
2023-09-19T15:27:55.641Z,59.20
2023-09-19T15:30:30.736Z,59.20
2023-09-19T15:33:05.507Z,59.20
2023-09-19T15:35:39.354Z,59.10
2023-09-19T15:38:13.323Z,58.60
2023-09-19T15:40:48.361Z,58.40
2023-09-19T15:43:22.797Z,56.70
2023-09-19T15:45:57.524Z,56.70
2023-09-19T15:48:32.781Z,57.30
2023-09-19T15:51:06.318Z,58.10
2023-09-19T15:53:48.016Z,58.00
2023-09-19T15:56:22.210Z,57.90
2023-09-19T15:58:56.103Z,57.70
2023-09-19T16:01:29.585Z,57.60
2023-09-19T16:04:04.549Z,57.80
2023-09-19T16:06:39.142Z,57.60
2023-09-19T16:09:12.238Z,57.80
2023-09-19T16:11:45.747Z,57.20
2023-09-19T16:14:19.154Z,57.20
2023-09-19T16:16:55.650Z,57.10
2023-09-19T16:19:30.359Z,57.20
2023-09-19T16:22:05.179Z,57.30
2023-09-19T16:24:40.534Z,57.40
2023-09-19T16:27:13.902Z,57.20
2023-09-19T16:29:51.431Z,57.10
2023-09-19T16:32:24.719Z,56.50
2023-09-19T16:34:59.312Z,56.20
2023-09-19T16:37:32.503Z,56.20
2023-09-19T16:40:06.120Z,56.10
2023-09-19T16:42:39.945Z,56.00
2023-09-19T16:45:13.443Z,56.20
2023-09-19T16:47:46.588Z,56.20
2023-09-19T16:50:21.151Z,56.30
2023-09-19T16:52:54.493Z,56.20
2023-09-19T16:55:27.737Z,56.30
2023-09-19T16:58:01.231Z,56.70
2023-09-19T17:00:34.319Z,56.80
2023-09-19T17:03:07.977Z,57.30
2023-09-19T17:05:48.320Z,58.10
2023-09-19T17:08:21.537Z,58.70
2023-09-19T17:11:01.801Z,58.90
2023-09-19T17:13:37.138Z,59.50
2023-09-19T17:16:10.648Z,60.00
2023-09-19T17:18:44.903Z,60.40
2023-09-19T17:21:19.915Z,60.80
2023-09-19T17:23:54.595Z,61.00
2023-09-19T17:26:29.135Z,60.70
2023-09-19T17:29:02.396Z,60.50
2023-09-19T17:31:35.735Z,60.40
2023-09-19T17:34:09.272Z,60.50
2023-09-19T17:36:44.651Z,60.60
2023-09-19T17:39:20.232Z,60.70
2023-09-19T17:41:53.505Z,60.70
2023-09-19T17:44:26.773Z,60.40
2023-09-19T17:47:00.181Z,60.00
2023-09-19T17:49:33.488Z,59.90
2023-09-19T17:52:07.941Z,59.70
2023-09-19T17:54:41.382Z,60.20
2023-09-19T17:57:14.478Z,59.50
2023-09-19T17:59:48.331Z,59.40
2023-09-19T18:02:21.701Z,59.20
2023-09-19T18:04:54.886Z,59.00
2023-09-19T18:07:31.721Z,58.90
2023-09-19T18:10:08.929Z,58.80
2023-09-19T18:12:42.211Z,59.10
2023-09-19T18:15:15.618Z,58.70
2023-09-19T18:17:49.258Z,58.60
2023-09-19T18:20:23.686Z,58.60
2023-09-19T18:22:58.249Z,58.60
2023-09-19T18:25:32.276Z,58.50
2023-09-19T18:28:06.235Z,58.40
2023-09-19T18:30:39.538Z,58.50
2023-09-19T18:33:13.052Z,58.40
2023-09-19T18:35:46.325Z,58.30
2023-09-19T18:38:21.459Z,58.30
2023-09-19T18:40:54.664Z,58.20
2023-09-19T18:43:28.385Z,58.30
2023-09-19T18:46:01.784Z,58.20
2023-09-19T18:48:36.074Z,58.10
2023-09-19T18:51:09.842Z,58.10
2023-09-19T18:53:53.104Z,58.10
2023-09-19T18:56:30.647Z,57.70
2023-09-19T18:59:03.779Z,57.30
2023-09-19T19:01:37.535Z,57.50
2023-09-19T19:04:12.275Z,57.20
2023-09-19T19:06:45.801Z,56.80
2023-09-19T19:09:20.754Z,56.80
2023-09-19T19:11:55.159Z,57.00
2023-09-19T19:14:28.484Z,56.90
2023-09-19T19:17:01.977Z,57.10
2023-09-19T19:19:35.339Z,56.80
2023-09-19T19:22:08.843Z,57.20
2023-09-19T19:24:43.288Z,57.10
2023-09-19T19:27:16.589Z,57.10
2023-09-19T19:29:50.280Z,57.40
2023-09-19T19:32:27.284Z,57.00
2023-09-19T19:35:00.818Z,56.80
2023-09-19T19:37:34.267Z,57.10
2023-09-19T19:40:11.387Z,57.30
2023-09-19T19:42:44.538Z,57.40
2023-09-19T19:45:17.629Z,57.50
2023-09-19T19:47:50.864Z,57.30
2023-09-19T19:50:24.235Z,57.30
2023-09-19T19:52:58.337Z,57.50
2023-09-19T19:55:34.011Z,57.60
2023-09-19T19:58:07.754Z,57.50
2023-09-19T20:00:44.038Z,57.50
2023-09-19T20:03:18.434Z,57.50
2023-09-19T20:05:52.313Z,57.40
2023-09-19T20:08:28.767Z,57.50
2023-09-19T20:11:07.682Z,57.50
2023-09-19T20:13:44.257Z,57.60
2023-09-19T20:16:18.408Z,57.60
2023-09-19T20:18:53.676Z,57.60
2023-09-19T20:21:26.766Z,57.50
2023-09-19T20:24:05.594Z,57.50
2023-09-19T20:26:40.236Z,57.40
2023-09-19T20:29:13.440Z,57.40
2023-09-19T20:31:46.878Z,57.50
2023-09-19T20:34:19.984Z,57.50
2023-09-19T20:36:53.082Z,57.40
2023-09-19T20:39:27.179Z,57.40
2023-09-19T20:42:02.228Z,57.40
2023-09-19T20:44:35.288Z,57.40
2023-09-19T20:47:08.515Z,57.40
2023-09-19T20:49:41.756Z,57.40
2023-09-19T20:52:15.976Z,57.30
2023-09-19T20:54:50.509Z,57.20
2023-09-19T20:57:25.070Z,57.30
2023-09-19T20:59:58.103Z,57.20
2023-09-19T21:02:31.215Z,57.50
2023-09-19T21:05:04.956Z,57.60
2023-09-19T21:07:39.760Z,57.60
2023-09-19T21:10:14.240Z,57.70
2023-09-19T21:12:49.769Z,57.60
2023-09-19T21:15:24.850Z,57.70
2023-09-19T21:17:58.020Z,57.60
2023-09-19T21:20:31.177Z,57.60
2023-09-19T21:23:07.433Z,57.60
2023-09-19T21:25:40.626Z,57.60
2023-09-19T21:28:15.543Z,57.50
2023-09-19T21:30:57.477Z,57.60
2023-09-19T21:33:31.046Z,57.60
2023-09-19T21:36:04.316Z,57.50
2023-09-19T21:38:37.675Z,57.50
2023-09-19T21:41:13.059Z,57.50
2023-09-19T21:43:49.738Z,57.60
2023-09-19T21:46:22.916Z,57.50
2023-09-19T21:48:56.752Z,57.50
2023-09-19T21:51:30.052Z,57.60
2023-09-19T21:54:04.840Z,57.60
2023-09-19T21:56:38.608Z,57.70
2023-09-19T21:59:13.403Z,57.70
2023-09-19T22:01:46.817Z,57.60
2023-09-19T22:04:22.920Z,57.60
2023-09-19T22:06:56.387Z,57.60
2023-09-19T22:09:29.932Z,57.60
2023-09-19T22:12:07.572Z,57.60
2023-09-19T22:14:42.060Z,57.50
2023-09-19T22:17:15.195Z,57.50
2023-09-19T22:19:49.340Z,57.40
2023-09-19T22:22:23.828Z,57.40
2023-09-19T22:24:58.129Z,57.40
2023-09-19T22:27:31.584Z,57.30
2023-09-19T22:30:06.829Z,57.30
2023-09-19T22:32:39.908Z,57.30
2023-09-19T22:35:13.149Z,57.30
2023-09-19T22:37:46.977Z,57.30
2023-09-19T22:40:29.853Z,57.30
2023-09-19T22:43:07.311Z,57.20
2023-09-19T22:45:41.891Z,57.10
2023-09-19T22:48:16.012Z,57.10
2023-09-19T22:50:53.033Z,57.10
2023-09-19T22:53:28.617Z,57.10
2023-09-19T22:56:04.468Z,57.10
2023-09-19T22:58:37.735Z,57.00
2023-09-19T23:01:17.874Z,57.00
2023-09-19T23:03:53.021Z,57.00
2023-09-19T23:06:26.202Z,56.90
2023-09-19T23:09:00.600Z,56.90
2023-09-19T23:11:34.082Z,56.90
2023-09-19T23:14:08.998Z,56.60
2023-09-19T23:16:48.035Z,56.80
2023-09-19T23:19:29.532Z,56.80
2023-09-19T23:22:07.215Z,56.70
2023-09-19T23:24:42.712Z,56.70
2023-09-19T23:27:25.047Z,56.60
2023-09-19T23:29:58.633Z,56.60
2023-09-19T23:32:33.114Z,56.60
2023-09-19T23:35:07.151Z,56.70
2023-09-19T23:37:41.189Z,56.60
2023-09-19T23:40:14.311Z,56.60
2023-09-19T23:42:47.428Z,56.60
2023-09-19T23:45:21.873Z,56.60
2023-09-19T23:47:57.177Z,56.60
2023-09-19T23:50:30.729Z,56.50
2023-09-19T23:53:07.216Z,56.40
2023-09-19T23:55:40.580Z,56.30
2023-09-19T23:58:14.302Z,56.50
